sensor_id;sensor_type;location;lat;lon;timestamp;P1;durP1;ratioP1;P2;durP2;ratioP2
20458;SDS011;10388;52.314;7.938;2023-07-13T03:32:08;3.70;;;2.50;;
20458;SDS011;10388;52.314;7.938;2023-07-13T03:34:39;6.87;;;2.70;;
20458;SDS011;10388;52.314;7.938;2023-07-13T03:37:10;6.53;;;3.20;;
20458;SDS011;10388;52.314;7.938;2023-07-13T03:39:40;5.93;;;2.80;;
20458;SDS011;10388;52.314;7.938;2023-07-13T03:42:12;5.97;;;2.90;;
20458;SDS011;10388;52.314;7.938;2023-07-13T03:44:42;5.87;;;2.80;;
20458;SDS011;10388;52.314;7.938;2023-07-13T03:47:22;6.83;;;3.00;;
20458;SDS011;10388;52.314;7.938;2023-07-13T03:49:52;8.50;;;2.70;;
20458;SDS011;10388;52.314;7.938;2023-07-13T03:52:23;8.60;;;2.93;;
20458;SDS011;10388;52.314;7.938;2023-07-13T03:54:54;6.27;;;2.40;;
20458;SDS011;10388;52.314;7.938;2023-07-13T03:57:25;9.13;;;2.73;;
20458;SDS011;10388;52.314;7.938;2023-07-13T03:59:56;5.10;;;2.63;;
20458;SDS011;10388;52.314;7.938;2023-07-13T04:02:26;6.27;;;2.60;;
20458;SDS011;10388;52.314;7.938;2023-07-13T04:04:57;8.03;;;3.10;;
20458;SDS011;10388;52.314;7.938;2023-07-13T04:07:27;6.20;;;2.70;;
20458;SDS011;10388;52.314;7.938;2023-07-13T04:09:58;7.47;;;2.63;;
20458;SDS011;10388;52.314;7.938;2023-07-13T04:12:28;4.23;;;2.73;;
20458;SDS011;10388;52.314;7.938;2023-07-13T04:14:59;5.07;;;2.40;;
20458;SDS011;10388;52.314;7.938;2023-07-13T04:17:29;5.37;;;2.17;;
20458;SDS011;10388;52.314;7.938;2023-07-13T04:20:00;3.53;;;2.50;;
20458;SDS011;10388;52.314;7.938;2023-07-13T04:22:30;6.77;;;2.53;;
20458;SDS011;10388;52.314;7.938;2023-07-13T04:25:01;3.67;;;2.43;;
20458;SDS011;10388;52.314;7.938;2023-07-13T04:27:31;4.87;;;2.63;;
20458;SDS011;10388;52.314;7.938;2023-07-13T04:30:02;4.63;;;2.77;;
20458;SDS011;10388;52.314;7.938;2023-07-13T04:32:33;7.47;;;2.83;;
20458;SDS011;10388;52.314;7.938;2023-07-13T04:35:03;6.13;;;2.60;;
20458;SDS011;10388;52.314;7.938;2023-07-13T04:37:34;4.40;;;2.37;;
20458;SDS011;10388;52.314;7.938;2023-07-13T04:40:05;3.77;;;2.47;;
20458;SDS011;10388;52.314;7.938;2023-07-13T04:42:36;5.13;;;2.67;;
20458;SDS011;10388;52.314;7.938;2023-07-13T04:45:07;7.33;;;2.57;;
20458;SDS011;10388;52.314;7.938;2023-07-13T04:47:38;7.83;;;2.47;;
20458;SDS011;10388;52.314;7.938;2023-07-13T04:50:08;4.60;;;2.20;;
20458;SDS011;10388;52.314;7.938;2023-07-13T04:52:41;5.00;;;2.60;;
20458;SDS011;10388;52.314;7.938;2023-07-13T04:55:12;4.47;;;2.47;;
20458;SDS011;10388;52.314;7.938;2023-07-13T04:57:42;5.43;;;2.40;;
20458;SDS011;10388;52.314;7.938;2023-07-13T05:00:14;2.87;;;2.43;;
20458;SDS011;10388;52.314;7.938;2023-07-13T05:02:48;3.70;;;2.03;;
20458;SDS011;10388;52.314;7.938;2023-07-13T05:05:18;5.97;;;2.60;;
20458;SDS011;10388;52.314;7.938;2023-07-13T05:07:49;5.70;;;2.20;;
20458;SDS011;10388;52.314;7.938;2023-07-13T05:10:19;5.20;;;2.57;;
20458;SDS011;10388;52.314;7.938;2023-07-13T05:12:50;6.60;;;2.50;;
20458;SDS011;10388;52.314;7.938;2023-07-13T05:15:22;7.23;;;2.60;;
20458;SDS011;10388;52.314;7.938;2023-07-13T05:17:53;5.40;;;2.50;;
20458;SDS011;10388;52.314;7.938;2023-07-13T05:20:23;5.03;;;2.10;;
20458;SDS011;10388;52.314;7.938;2023-07-13T05:22:54;5.17;;;2.10;;
20458;SDS011;10388;52.314;7.938;2023-07-13T05:25:24;7.30;;;2.40;;
20458;SDS011;10388;52.314;7.938;2023-07-13T05:27:55;5.40;;;2.03;;
20458;SDS011;10388;52.314;7.938;2023-07-13T05:30:25;7.50;;;2.53;;
20458;SDS011;10388;52.314;7.938;2023-07-13T05:32:56;3.10;;;2.03;;
20458;SDS011;10388;52.314;7.938;2023-07-13T05:35:26;4.33;;;2.20;;
20458;SDS011;10388;52.314;7.938;2023-07-13T05:37:57;5.43;;;2.03;;
20458;SDS011;10388;52.314;7.938;2023-07-13T05:40:27;5.10;;;2.13;;
20458;SDS011;10388;52.314;7.938;2023-07-13T05:42:58;3.73;;;2.10;;
20458;SDS011;10388;52.314;7.938;2023-07-13T05:45:28;6.13;;;2.30;;
20458;SDS011;10388;52.314;7.938;2023-07-13T05:47:59;4.30;;;2.23;;
20458;SDS011;10388;52.314;7.938;2023-07-13T05:50:29;6.77;;;2.60;;
20458;SDS011;10388;52.314;7.938;2023-07-13T05:53:00;5.10;;;2.13;;
20458;SDS011;10388;52.314;7.938;2023-07-13T05:55:30;6.47;;;2.07;;
20458;SDS011;10388;52.314;7.938;2023-07-13T05:58:01;4.20;;;2.23;;
20458;SDS011;10388;52.314;7.938;2023-07-13T06:00:31;5.93;;;2.37;;
20458;SDS011;10388;52.314;7.938;2023-07-13T06:03:03;4.83;;;2.30;;
20458;SDS011;10388;52.314;7.938;2023-07-13T06:05:34;5.10;;;2.00;;
20458;SDS011;10388;52.314;7.938;2023-07-13T06:08:06;8.40;;;2.60;;
20458;SDS011;10388;52.314;7.938;2023-07-13T06:10:37;5.90;;;2.40;;
20458;SDS011;10388;52.314;7.938;2023-07-13T06:13:07;5.73;;;2.63;;
20458;SDS011;10388;52.314;7.938;2023-07-13T06:15:38;3.03;;;1.73;;
20458;SDS011;10388;52.314;7.938;2023-07-13T06:18:08;2.87;;;1.80;;
20458;SDS011;10388;52.314;7.938;2023-07-13T06:20:39;8.93;;;2.63;;
20458;SDS011;10388;52.314;7.938;2023-07-13T06:23:09;5.33;;;2.00;;
20458;SDS011;10388;52.314;7.938;2023-07-13T06:25:40;3.83;;;2.10;;
20458;SDS011;10388;52.314;7.938;2023-07-13T06:28:10;4.07;;;2.10;;
20458;SDS011;10388;52.314;7.938;2023-07-13T06:30:41;4.97;;;2.53;;
20458;SDS011;10388;52.314;7.938;2023-07-13T06:33:11;3.87;;;1.83;;
20458;SDS011;10388;52.314;7.938;2023-07-13T06:35:42;4.97;;;2.20;;
20458;SDS011;10388;52.314;7.938;2023-07-13T06:38:13;7.57;;;2.60;;
20458;SDS011;10388;52.314;7.938;2023-07-13T06:40:43;6.93;;;2.37;;
20458;SDS011;10388;52.314;7.938;2023-07-13T06:43:14;4.10;;;2.03;;
20458;SDS011;10388;52.314;7.938;2023-07-13T06:45:45;6.30;;;2.90;;
20458;SDS011;10388;52.314;7.938;2023-07-13T06:48:18;5.37;;;2.40;;
20458;SDS011;10388;52.314;7.938;2023-07-13T06:50:49;6.57;;;2.43;;
20458;SDS011;10388;52.314;7.938;2023-07-13T06:53:21;7.53;;;2.73;;
20458;SDS011;10388;52.314;7.938;2023-07-13T06:55:52;3.97;;;2.50;;
20458;SDS011;10388;52.314;7.938;2023-07-13T06:58:22;4.37;;;2.17;;
20458;SDS011;10388;52.314;7.938;2023-07-13T07:00:53;5.43;;;2.57;;
20458;SDS011;10388;52.314;7.938;2023-07-13T07:03:24;4.90;;;2.53;;
20458;SDS011;10388;52.314;7.938;2023-07-13T07:05:59;5.87;;;2.37;;
20458;SDS011;10388;52.314;7.938;2023-07-13T07:08:31;4.27;;;2.20;;
20458;SDS011;10388;52.314;7.938;2023-07-13T07:11:01;7.90;;;2.17;;
20458;SDS011;10388;52.314;7.938;2023-07-13T07:13:32;6.37;;;2.50;;
20458;SDS011;10388;52.314;7.938;2023-07-13T07:16:02;5.87;;;2.60;;
20458;SDS011;10388;52.314;7.938;2023-07-13T07:18:33;8.00;;;2.50;;
20458;SDS011;10388;52.314;7.938;2023-07-13T07:21:04;3.93;;;2.07;;
20458;SDS011;10388;52.314;7.938;2023-07-13T07:23:34;3.97;;;2.07;;
20458;SDS011;10388;52.314;7.938;2023-07-13T07:26:05;6.00;;;2.23;;
20458;SDS011;10388;52.314;7.938;2023-07-13T07:28:38;5.30;;;2.37;;
20458;SDS011;10388;52.314;7.938;2023-07-13T07:31:09;6.43;;;2.17;;
20458;SDS011;10388;52.314;7.938;2023-07-13T07:33:39;3.90;;;2.23;;
20458;SDS011;10388;52.314;7.938;2023-07-13T07:36:10;6.53;;;2.43;;
20458;SDS011;10388;52.314;7.938;2023-07-13T07:38:42;5.07;;;2.33;;
20458;SDS011;10388;52.314;7.938;2023-07-13T07:41:13;7.50;;;2.33;;
20458;SDS011;10388;52.314;7.938;2023-07-13T07:43:44;6.50;;;2.27;;
20458;SDS011;10388;52.314;7.938;2023-07-13T07:46:14;6.23;;;2.20;;
20458;SDS011;10388;52.314;7.938;2023-07-13T07:48:45;7.97;;;2.40;;
20458;SDS011;10388;52.314;7.938;2023-07-13T07:51:15;6.47;;;2.47;;
20458;SDS011;10388;52.314;7.938;2023-07-13T07:53:47;5.50;;;2.20;;
20458;SDS011;10388;52.314;7.938;2023-07-13T07:56:17;11.33;;;3.10;;
20458;SDS011;10388;52.314;7.938;2023-07-13T07:58:48;5.83;;;2.20;;
20458;SDS011;10388;52.314;7.938;2023-07-13T08:01:19;7.40;;;2.33;;
20458;SDS011;10388;52.314;7.938;2023-07-13T08:03:49;4.93;;;2.13;;
20458;SDS011;10388;52.314;7.938;2023-07-13T08:06:20;4.00;;;1.80;;
20458;SDS011;10388;52.314;7.938;2023-07-13T08:08:51;4.93;;;1.77;;
20458;SDS011;10388;52.314;7.938;2023-07-13T08:11:22;3.60;;;1.50;;
20458;SDS011;10388;52.314;7.938;2023-07-13T08:13:53;2.93;;;1.90;;
20458;SDS011;10388;52.314;7.938;2023-07-13T08:16:23;2.90;;;1.73;;
20458;SDS011;10388;52.314;7.938;2023-07-13T08:18:54;5.87;;;2.03;;
20458;SDS011;10388;52.314;7.938;2023-07-13T08:21:25;4.93;;;2.00;;
20458;SDS011;10388;52.314;7.938;2023-07-13T08:23:55;3.33;;;2.03;;
20458;SDS011;10388;52.314;7.938;2023-07-13T08:26:26;2.77;;;1.53;;
20458;SDS011;10388;52.314;7.938;2023-07-13T08:28:56;7.77;;;2.27;;
20458;SDS011;10388;52.314;7.938;2023-07-13T08:31:27;4.20;;;1.67;;
20458;SDS011;10388;52.314;7.938;2023-07-13T08:33:57;6.07;;;2.30;;
20458;SDS011;10388;52.314;7.938;2023-07-13T08:36:28;5.00;;;2.13;;
20458;SDS011;10388;52.314;7.938;2023-07-13T08:38:59;4.13;;;2.03;;
20458;SDS011;10388;52.314;7.938;2023-07-13T08:41:30;3.20;;;1.67;;
20458;SDS011;10388;52.314;7.938;2023-07-13T08:44:00;3.53;;;1.87;;
20458;SDS011;10388;52.314;7.938;2023-07-13T08:46:38;6.10;;;2.13;;
20458;SDS011;10388;52.314;7.938;2023-07-13T08:49:13;4.97;;;2.23;;
20458;SDS011;10388;52.314;7.938;2023-07-13T08:51:51;5.13;;;2.00;;
20458;SDS011;10388;52.314;7.938;2023-07-13T08:57:14;4.17;;;2.33;;
20458;SDS011;10388;52.314;7.938;2023-07-13T08:59:46;6.10;;;2.33;;
20458;SDS011;10388;52.314;7.938;2023-07-13T09:02:20;6.03;;;1.87;;
20458;SDS011;10388;52.314;7.938;2023-07-13T09:05:09;3.77;;;1.87;;
20458;SDS011;10388;52.314;7.938;2023-07-13T09:08:24;4.60;;;2.27;;
20458;SDS011;10388;52.314;7.938;2023-07-13T09:11:32;4.67;;;2.50;;
20458;SDS011;10388;52.314;7.938;2023-07-13T09:17:27;4.63;;;2.50;;
20458;SDS011;10388;52.314;7.938;2023-07-13T09:20:21;3.20;;;2.20;;
20458;SDS011;10388;52.314;7.938;2023-07-13T09:22:57;4.57;;;2.00;;
20458;SDS011;10388;52.314;7.938;2023-07-13T09:25:31;5.17;;;2.00;;
20458;SDS011;10388;52.314;7.938;2023-07-13T09:28:17;4.47;;;2.10;;
20458;SDS011;10388;52.314;7.938;2023-07-13T09:33:37;2.10;;;1.83;;
20458;SDS011;10388;52.314;7.938;2023-07-13T09:36:17;5.10;;;2.40;;
20458;SDS011;10388;52.314;7.938;2023-07-13T09:41:48;3.57;;;2.27;;
20458;SDS011;10388;52.314;7.938;2023-07-13T09:44:36;4.83;;;2.47;;
20458;SDS011;10388;52.314;7.938;2023-07-13T09:47:16;4.23;;;2.13;;
20458;SDS011;10388;52.314;7.938;2023-07-13T09:49:48;3.40;;;2.30;;
20458;SDS011;10388;52.314;7.938;2023-07-13T09:52:25;4.87;;;2.17;;
20458;SDS011;10388;52.314;7.938;2023-07-13T09:54:57;5.27;;;2.00;;
20458;SDS011;10388;52.314;7.938;2023-07-13T09:57:31;3.70;;;2.13;;
20458;SDS011;10388;52.314;7.938;2023-07-13T10:00:01;4.00;;;2.30;;
20458;SDS011;10388;52.314;7.938;2023-07-13T10:02:33;4.80;;;2.40;;
20458;SDS011;10388;52.314;7.938;2023-07-13T10:05:06;6.80;;;2.37;;
20458;SDS011;10388;52.314;7.938;2023-07-13T10:07:44;4.63;;;2.57;;
20458;SDS011;10388;52.314;7.938;2023-07-13T10:10:16;4.10;;;2.10;;
20458;SDS011;10388;52.314;7.938;2023-07-13T10:12:48;4.67;;;2.30;;
20458;SDS011;10388;52.314;7.938;2023-07-13T10:15:23;5.97;;;2.60;;
20458;SDS011;10388;52.314;7.938;2023-07-13T10:17:55;6.13;;;2.40;;
20458;SDS011;10388;52.314;7.938;2023-07-13T10:20:27;4.43;;;2.23;;
20458;SDS011;10388;52.314;7.938;2023-07-13T10:23:02;3.87;;;2.73;;
20458;SDS011;10388;52.314;7.938;2023-07-13T10:25:38;6.10;;;2.67;;
20458;SDS011;10388;52.314;7.938;2023-07-13T10:30:58;4.43;;;2.07;;
20458;SDS011;10388;52.314;7.938;2023-07-13T10:33:30;3.43;;;2.30;;
20458;SDS011;10388;52.314;7.938;2023-07-13T10:36:47;4.93;;;2.30;;
20458;SDS011;10388;52.314;7.938;2023-07-13T10:39:15;8.03;;;2.40;;
20458;SDS011;10388;52.314;7.938;2023-07-13T10:41:55;3.87;;;1.90;;
20458;SDS011;10388;52.314;7.938;2023-07-13T10:44:33;4.80;;;2.30;;
20458;SDS011;10388;52.314;7.938;2023-07-13T10:47:06;4.57;;;2.00;;
20458;SDS011;10388;52.314;7.938;2023-07-13T10:49:42;6.10;;;2.53;;
20458;SDS011;10388;52.314;7.938;2023-07-13T10:55:32;4.90;;;2.70;;
20458;SDS011;10388;52.314;7.938;2023-07-13T11:00:53;4.40;;;2.40;;
20458;SDS011;10388;52.314;7.938;2023-07-13T11:08:53;4.67;;;2.23;;
20458;SDS011;10388;52.314;7.938;2023-07-13T11:14:02;3.40;;;2.17;;
20458;SDS011;10388;52.314;7.938;2023-07-13T11:16:42;4.30;;;2.40;;
20458;SDS011;10388;52.314;7.938;2023-07-13T11:22:02;3.53;;;2.50;;
20458;SDS011;10388;52.314;7.938;2023-07-13T11:25:36;4.37;;;2.47;;
20458;SDS011;10388;52.314;7.938;2023-07-13T11:27:52;4.40;;;2.23;;
20458;SDS011;10388;52.314;7.938;2023-07-13T11:33:22;2.83;;;1.90;;
20458;SDS011;10388;52.314;7.938;2023-07-13T11:36:02;6.70;;;2.47;;
20458;SDS011;10388;52.314;7.938;2023-07-13T11:38:39;4.13;;;1.93;;
20458;SDS011;10388;52.314;7.938;2023-07-13T11:41:19;4.63;;;2.47;;
20458;SDS011;10388;52.314;7.938;2023-07-13T11:43:54;3.43;;;2.10;;
20458;SDS011;10388;52.314;7.938;2023-07-13T11:46:32;5.20;;;2.03;;
20458;SDS011;10388;52.314;7.938;2023-07-13T11:49:06;3.53;;;1.93;;
20458;SDS011;10388;52.314;7.938;2023-07-13T11:51:37;3.40;;;1.90;;
20458;SDS011;10388;52.314;7.938;2023-07-13T11:54:43;3.73;;;1.87;;
20458;SDS011;10388;52.314;7.938;2023-07-13T12:00:11;5.37;;;2.40;;
20458;SDS011;10388;52.314;7.938;2023-07-13T12:02:48;3.00;;;2.00;;
20458;SDS011;10388;52.314;7.938;2023-07-13T12:05:22;3.13;;;2.20;;
20458;SDS011;10388;52.314;7.938;2023-07-13T12:07:52;5.30;;;2.00;;
20458;SDS011;10388;52.314;7.938;2023-07-13T12:10:28;3.10;;;1.90;;
20458;SDS011;10388;52.314;7.938;2023-07-13T12:13:03;3.47;;;1.83;;
20458;SDS011;10388;52.314;7.938;2023-07-13T12:15:40;4.03;;;2.17;;
20458;SDS011;10388;52.314;7.938;2023-07-13T12:18:13;2.73;;;2.00;;
20458;SDS011;10388;52.314;7.938;2023-07-13T12:20:55;3.17;;;1.70;;
20458;SDS011;10388;52.314;7.938;2023-07-13T12:26:01;5.67;;;2.10;;
20458;SDS011;10388;52.314;7.938;2023-07-13T12:28:34;5.40;;;2.13;;
20458;SDS011;10388;52.314;7.938;2023-07-13T12:34:23;5.47;;;2.57;;
20458;SDS011;10388;52.314;7.938;2023-07-13T12:37:01;3.07;;;1.83;;
20458;SDS011;10388;52.314;7.938;2023-07-13T12:39:36;3.43;;;1.40;;
20458;SDS011;10388;52.314;7.938;2023-07-13T12:42:17;6.80;;;2.13;;
20458;SDS011;10388;52.314;7.938;2023-07-13T12:47:41;2.80;;;1.87;;
20458;SDS011;10388;52.314;7.938;2023-07-13T12:50:17;2.17;;;1.97;;
20458;SDS011;10388;52.314;7.938;2023-07-13T12:52:54;4.60;;;2.10;;
20458;SDS011;10388;52.314;7.938;2023-07-13T12:55:40;3.17;;;1.97;;
20458;SDS011;10388;52.314;7.938;2023-07-13T12:58:16;3.10;;;2.33;;
20458;SDS011;10388;52.314;7.938;2023-07-13T13:00:49;3.27;;;2.20;;
20458;SDS011;10388;52.314;7.938;2023-07-13T13:08:35;3.37;;;2.70;;
20458;SDS011;10388;52.314;7.938;2023-07-13T13:11:06;3.00;;;2.30;;
20458;SDS011;10388;52.314;7.938;2023-07-13T13:13:37;3.10;;;2.63;;
20458;SDS011;10388;52.314;7.938;2023-07-13T13:16:11;3.30;;;3.00;;
20458;SDS011;10388;52.314;7.938;2023-07-13T13:18:47;3.07;;;2.77;;
20458;SDS011;10388;52.314;7.938;2023-07-13T13:21:19;2.83;;;2.40;;
20458;SDS011;10388;52.314;7.938;2023-07-13T13:23:50;3.63;;;2.70;;
20458;SDS011;10388;52.314;7.938;2023-07-13T13:26:22;5.03;;;2.73;;
20458;SDS011;10388;52.314;7.938;2023-07-13T13:28:53;2.93;;;2.63;;
20458;SDS011;10388;52.314;7.938;2023-07-13T13:31:23;4.17;;;2.93;;
20458;SDS011;10388;52.314;7.938;2023-07-13T13:33:54;4.97;;;2.97;;
20458;SDS011;10388;52.314;7.938;2023-07-13T13:36:26;4.77;;;3.17;;
20458;SDS011;10388;52.314;7.938;2023-07-13T13:38:56;3.73;;;3.23;;
20458;SDS011;10388;52.314;7.938;2023-07-13T13:41:27;4.17;;;3.13;;
20458;SDS011;10388;52.314;7.938;2023-07-13T13:43:58;3.50;;;3.20;;
20458;SDS011;10388;52.314;7.938;2023-07-13T13:46:35;5.80;;;4.03;;
20458;SDS011;10388;52.314;7.938;2023-07-13T13:49:08;5.57;;;3.60;;
20458;SDS011;10388;52.314;7.938;2023-07-13T13:51:43;4.17;;;3.50;;
20458;SDS011;10388;52.314;7.938;2023-07-13T13:54:14;4.97;;;3.63;;
20458;SDS011;10388;52.314;7.938;2023-07-13T13:56:50;5.53;;;4.23;;
20458;SDS011;10388;52.314;7.938;2023-07-13T13:59:22;4.57;;;4.00;;
20458;SDS011;10388;52.314;7.938;2023-07-13T14:01:52;10.10;;;4.23;;
20458;SDS011;10388;52.314;7.938;2023-07-13T14:04:23;5.60;;;4.17;;
20458;SDS011;10388;52.314;7.938;2023-07-13T14:06:53;5.23;;;4.43;;
20458;SDS011;10388;52.314;7.938;2023-07-13T14:09:24;5.10;;;4.00;;
20458;SDS011;10388;52.314;7.938;2023-07-13T14:11:55;6.43;;;4.30;;
20458;SDS011;10388;52.314;7.938;2023-07-13T14:14:27;4.53;;;4.13;;
20458;SDS011;10388;52.314;7.938;2023-07-13T14:16:58;4.97;;;4.47;;
20458;SDS011;10388;52.314;7.938;2023-07-13T14:19:29;4.07;;;3.20;;
20458;SDS011;10388;52.314;7.938;2023-07-13T14:21:59;4.93;;;3.60;;
20458;SDS011;10388;52.314;7.938;2023-07-13T14:24:30;5.47;;;3.60;;
20458;SDS011;10388;52.314;7.938;2023-07-13T14:27:01;5.87;;;4.03;;
20458;SDS011;10388;52.314;7.938;2023-07-13T14:29:31;4.47;;;3.47;;
20458;SDS011;10388;52.314;7.938;2023-07-13T14:32:03;4.57;;;3.47;;
20458;SDS011;10388;52.314;7.938;2023-07-13T14:34:36;3.83;;;3.53;;
20458;SDS011;10388;52.314;7.938;2023-07-13T14:37:10;6.10;;;3.40;;
20458;SDS011;10388;52.314;7.938;2023-07-13T14:39:44;4.27;;;3.87;;
20458;SDS011;10388;52.314;7.938;2023-07-13T14:42:17;5.43;;;3.77;;
20458;SDS011;10388;52.314;7.938;2023-07-13T14:44:48;4.53;;;4.07;;
20458;SDS011;10388;52.314;7.938;2023-07-13T14:47:18;6.27;;;3.70;;
20458;SDS011;10388;52.314;7.938;2023-07-13T14:49:49;4.63;;;3.40;;
20458;SDS011;10388;52.314;7.938;2023-07-13T14:52:20;5.80;;;3.83;;
20458;SDS011;10388;52.314;7.938;2023-07-13T14:54:53;3.60;;;3.23;;
20458;SDS011;10388;52.314;7.938;2023-07-13T14:57:24;4.03;;;3.33;;
20458;SDS011;10388;52.314;7.938;2023-07-13T14:59:55;4.17;;;3.10;;
20458;SDS011;10388;52.314;7.938;2023-07-13T15:04:56;4.40;;;2.20;;
20458;SDS011;10388;52.314;7.938;2023-07-13T15:07:27;2.23;;;2.03;;
20458;SDS011;10388;52.314;7.938;2023-07-13T15:09:57;2.60;;;1.80;;
20458;SDS011;10388;52.314;7.938;2023-07-13T15:12:28;2.37;;;1.97;;
20458;SDS011;10388;52.314;7.938;2023-07-13T15:14:58;3.17;;;2.10;;
20458;SDS011;10388;52.314;7.938;2023-07-13T15:17:33;2.33;;;1.93;;
20458;SDS011;10388;52.314;7.938;2023-07-13T15:22:58;2.70;;;1.83;;
20458;SDS011;10388;52.314;7.938;2023-07-13T15:25:30;2.07;;;1.83;;
20458;SDS011;10388;52.314;7.938;2023-07-13T15:28:02;2.47;;;1.70;;
20458;SDS011;10388;52.314;7.938;2023-07-13T15:30:38;2.40;;;1.80;;
20458;SDS011;10388;52.314;7.938;2023-07-13T15:33:22;1.83;;;1.67;;
20458;SDS011;10388;52.314;7.938;2023-07-13T15:35:57;2.70;;;1.83;;
20458;SDS011;10388;52.314;7.938;2023-07-13T15:38:29;5.03;;;2.00;;
20458;SDS011;10388;52.314;7.938;2023-07-13T15:41:01;2.27;;;2.07;;
20458;SDS011;10388;52.314;7.938;2023-07-13T15:43:40;2.10;;;1.90;;
20458;SDS011;10388;52.314;7.938;2023-07-13T15:46:10;2.47;;;2.27;;
20458;SDS011;10388;52.314;7.938;2023-07-13T15:48:41;2.30;;;1.90;;
20458;SDS011;10388;52.314;7.938;2023-07-13T15:51:44;2.20;;;1.87;;
20458;SDS011;10388;52.314;7.938;2023-07-13T15:54:08;3.50;;;1.97;;
20458;SDS011;10388;52.314;7.938;2023-07-13T15:56:44;2.60;;;2.10;;
20458;SDS011;10388;52.314;7.938;2023-07-13T15:59:18;1.83;;;1.53;;
20458;SDS011;10388;52.314;7.938;2023-07-13T16:01:50;2.17;;;1.67;;
20458;SDS011;10388;52.314;7.938;2023-07-13T16:04:20;2.63;;;1.50;;
20458;SDS011;10388;52.314;7.938;2023-07-13T16:06:51;2.77;;;1.60;;
20458;SDS011;10388;52.314;7.938;2023-07-13T16:09:22;2.13;;;1.47;;
20458;SDS011;10388;52.314;7.938;2023-07-13T16:11:53;1.60;;;1.37;;
20458;SDS011;10388;52.314;7.938;2023-07-13T16:14:27;1.60;;;1.50;;
20458;SDS011;10388;52.314;7.938;2023-07-13T16:16:58;3.80;;;1.70;;
20458;SDS011;10388;52.314;7.938;2023-07-13T16:19:28;3.07;;;1.87;;
20458;SDS011;10388;52.314;7.938;2023-07-13T16:21:59;2.03;;;1.80;;
20458;SDS011;10388;52.314;7.938;2023-07-13T16:24:31;2.23;;;1.90;;
20458;SDS011;10388;52.314;7.938;2023-07-13T16:27:02;2.67;;;1.57;;
20458;SDS011;10388;52.314;7.938;2023-07-13T16:29:33;2.13;;;1.80;;
20458;SDS011;10388;52.314;7.938;2023-07-13T16:32:05;3.60;;;2.20;;
20458;SDS011;10388;52.314;7.938;2023-07-13T16:34:39;2.73;;;1.97;;
20458;SDS011;10388;52.314;7.938;2023-07-13T16:37:16;2.47;;;1.70;;
20458;SDS011;10388;52.314;7.938;2023-07-13T16:39:48;3.27;;;2.30;;
20458;SDS011;10388;52.314;7.938;2023-07-13T16:42:22;2.37;;;1.90;;
20458;SDS011;10388;52.314;7.938;2023-07-13T16:44:53;2.97;;;2.03;;
20458;SDS011;10388;52.314;7.938;2023-07-13T16:47:26;3.07;;;2.50;;
20458;SDS011;10388;52.314;7.938;2023-07-13T16:49:57;2.77;;;2.20;;
20458;SDS011;10388;52.314;7.938;2023-07-13T16:52:28;2.77;;;2.40;;
20458;SDS011;10388;52.314;7.938;2023-07-13T16:54:58;2.80;;;2.40;;
20458;SDS011;10388;52.314;7.938;2023-07-13T16:57:31;4.10;;;2.40;;
20458;SDS011;10388;52.314;7.938;2023-07-13T17:00:10;3.37;;;2.33;;
20458;SDS011;10388;52.314;7.938;2023-07-13T17:02:58;2.20;;;2.00;;
20458;SDS011;10388;52.314;7.938;2023-07-13T17:05:36;2.83;;;2.10;;
20458;SDS011;10388;52.314;7.938;2023-07-13T17:08:15;3.53;;;2.20;;
20458;SDS011;10388;52.314;7.938;2023-07-13T17:10:51;2.73;;;2.20;;
20458;SDS011;10388;52.314;7.938;2023-07-13T17:13:29;3.13;;;2.10;;
20458;SDS011;10388;52.314;7.938;2023-07-13T17:16:00;5.30;;;2.20;;
20458;SDS011;10388;52.314;7.938;2023-07-13T17:18:31;3.53;;;2.20;;
20458;SDS011;10388;52.314;7.938;2023-07-13T17:21:13;4.53;;;2.30;;
20458;SDS011;10388;52.314;7.938;2023-07-13T17:23:45;4.50;;;2.13;;
20458;SDS011;10388;52.314;7.938;2023-07-13T17:26:21;5.73;;;2.27;;
20458;SDS011;10388;52.314;7.938;2023-07-13T17:28:52;6.53;;;2.47;;
20458;SDS011;10388;52.314;7.938;2023-07-13T17:31:24;4.37;;;2.30;;
20458;SDS011;10388;52.314;7.938;2023-07-13T17:33:54;5.00;;;2.20;;
20458;SDS011;10388;52.314;7.938;2023-07-13T17:36:25;2.50;;;2.17;;
20458;SDS011;10388;52.314;7.938;2023-07-13T17:38:56;3.23;;;2.00;;
20458;SDS011;10388;52.314;7.938;2023-07-13T17:41:27;2.30;;;2.10;;
20458;SDS011;10388;52.314;7.938;2023-07-13T17:43:58;3.70;;;2.00;;
20458;SDS011;10388;52.314;7.938;2023-07-13T17:46:29;3.33;;;2.10;;
20458;SDS011;10388;52.314;7.938;2023-07-13T17:49:01;2.77;;;2.00;;
20458;SDS011;10388;52.314;7.938;2023-07-13T17:51:35;3.37;;;2.00;;
20458;SDS011;10388;52.314;7.938;2023-07-13T17:54:11;2.40;;;2.20;;
20458;SDS011;10388;52.314;7.938;2023-07-13T17:56:43;3.90;;;2.27;;
20458;SDS011;10388;52.314;7.938;2023-07-13T17:59:14;2.87;;;2.47;;
20458;SDS011;10388;52.314;7.938;2023-07-13T18:01:45;4.17;;;2.37;;
20458;SDS011;10388;52.314;7.938;2023-07-13T18:04:17;3.57;;;1.97;;
20458;SDS011;10388;52.314;7.938;2023-07-13T18:06:52;5.60;;;2.53;;
20458;SDS011;10388;52.314;7.938;2023-07-13T18:09:26;5.10;;;2.90;;
20458;SDS011;10388;52.314;7.938;2023-07-13T18:11:57;7.20;;;2.90;;
20458;SDS011;10388;52.314;7.938;2023-07-13T18:14:28;4.53;;;3.20;;
20458;SDS011;10388;52.314;7.938;2023-07-13T18:17:01;4.27;;;3.33;;
20458;SDS011;10388;52.314;7.938;2023-07-13T18:19:37;3.83;;;3.50;;
20458;SDS011;10388;52.314;7.938;2023-07-13T18:22:14;6.37;;;4.17;;
20458;SDS011;10388;52.314;7.938;2023-07-13T18:24:46;5.77;;;3.33;;
20458;SDS011;10388;52.314;7.938;2023-07-13T18:27:16;4.20;;;3.47;;
20458;SDS011;10388;52.314;7.938;2023-07-13T18:29:47;7.50;;;3.83;;
20458;SDS011;10388;52.314;7.938;2023-07-13T18:32:18;5.33;;;3.33;;
20458;SDS011;10388;52.314;7.938;2023-07-13T18:34:50;5.70;;;3.37;;
20458;SDS011;10388;52.314;7.938;2023-07-13T18:37:22;3.97;;;2.83;;
20458;SDS011;10388;52.314;7.938;2023-07-13T18:39:52;4.93;;;3.30;;
20458;SDS011;10388;52.314;7.938;2023-07-13T18:42:23;5.10;;;3.43;;
20458;SDS011;10388;52.314;7.938;2023-07-13T18:44:54;4.67;;;3.40;;
20458;SDS011;10388;52.314;7.938;2023-07-13T18:47:26;5.60;;;3.80;;
20458;SDS011;10388;52.314;7.938;2023-07-13T18:50:20;3.93;;;3.63;;
20458;SDS011;10388;52.314;7.938;2023-07-13T18:53:01;4.57;;;3.30;;
20458;SDS011;10388;52.314;7.938;2023-07-13T18:55:32;4.97;;;3.90;;
20458;SDS011;10388;52.314;7.938;2023-07-13T18:58:03;5.33;;;4.03;;
20458;SDS011;10388;52.314;7.938;2023-07-13T19:00:35;4.87;;;3.37;;
20458;SDS011;10388;52.314;7.938;2023-07-13T19:03:16;6.57;;;3.97;;
20458;SDS011;10388;52.314;7.938;2023-07-13T19:05:48;5.37;;;4.57;;
20458;SDS011;10388;52.314;7.938;2023-07-13T19:08:20;4.30;;;3.90;;
20458;SDS011;10388;52.314;7.938;2023-07-13T19:10:52;4.93;;;4.20;;
20458;SDS011;10388;52.314;7.938;2023-07-13T19:13:24;4.47;;;4.07;;
20458;SDS011;10388;52.314;7.938;2023-07-13T19:15:56;5.97;;;4.30;;
20458;SDS011;10388;52.314;7.938;2023-07-13T19:18:28;5.20;;;4.27;;
20458;SDS011;10388;52.314;7.938;2023-07-13T19:20:59;4.83;;;4.10;;
20458;SDS011;10388;52.314;7.938;2023-07-13T19:23:33;4.43;;;4.03;;
20458;SDS011;10388;52.314;7.938;2023-07-13T19:26:20;4.00;;;3.60;;
20458;SDS011;10388;52.314;7.938;2023-07-13T19:28:57;4.63;;;3.77;;
20458;SDS011;10388;52.314;7.938;2023-07-13T19:31:32;6.37;;;4.77;;
20458;SDS011;10388;52.314;7.938;2023-07-13T19:34:26;5.67;;;4.77;;
20458;SDS011;10388;52.314;7.938;2023-07-13T19:37:02;5.17;;;4.67;;
20458;SDS011;10388;52.314;7.938;2023-07-13T19:39:36;5.13;;;4.63;;
20458;SDS011;10388;52.314;7.938;2023-07-13T19:42:15;5.50;;;5.00;;
20458;SDS011;10388;52.314;7.938;2023-07-13T19:44:48;6.57;;;5.97;;
20458;SDS011;10388;52.314;7.938;2023-07-13T19:47:20;6.93;;;5.10;;
20458;SDS011;10388;52.314;7.938;2023-07-13T19:49:51;6.77;;;5.27;;
20458;SDS011;10388;52.314;7.938;2023-07-13T19:52:24;5.53;;;4.97;;